CYZU

Whitecourt Airport

Whitecourt, Alberta, Canada
METAR CYZU 211331Z 00000KT 15SM FEW003 SCT063 OVC100 08/07 A2992 RMK SF2SC2AC4 SLP149
Observed Flight Rules
Jul-21 @ 13:31 UTC (17 minutes ago) Visual Flight Rules
Visibility Clouds
15 miles
  • Few at 300' AGL
  • Scattered at 6,300' AGL
  • Overcast at 10,000' AGL
Temperatures Readings
Current 8°C / 46°F
Dewpoint 7°C / 45°F
Humidity 93%
Altimeter 29.92" Hg
Pressure 1014.9 hPa
Elevation 785
METAR CYZU 211331Z 00000KT 15SM FEW003 SCT063 OVC100 08/07 A2992 RMK SF2SC2AC4 SLP149
Observed Flight Rules
Jul-21 @ 13:31 UTC
(17 minutes ago)
VFR
Clouds
  • Few at 300' AGL
  • Scattered at 6,300' AGL
  • Overcast at 10,000' AGL
Temperature Dewpoint
8°C / 46°F 7°C / 45°F
Humidity Altimeter Pressure
93% 29.92" Hg 1014.9 hPa